Time;durP1;ratioP1;P1;durP2;ratioP2;P2;SDS_P1;SDS_P2;PMS_P1;PMS_P2;Temp;Humidity;BMP_temperature;BMP_pressure;BME280_temperature;BME280_humidity;BME280_pressure;Samples;Min_cycle;Max_cycle;Signal;HPM_P1;HPM_P2
2021/03/19 00:00:55;;;;;;;82.78;40.65;;;;;;;-2.42;84.23;99933.77;253862;1108;116026;-61
2021/03/19 00:06:00;;;;;;;75.60;36.13;;;;;;;-2.32;83.92;99933.72;254028;1108;115927;-61
2021/03/19 00:11:06;;;;;;;76.10;37.17;;;;;;;-2.26;82.42;99927.91;253857;1107;116199;-63
2021/03/19 00:16:10;;;;;;;68.83;34.65;;;;;;;-2.17;82.93;99927.86;253975;1108;115164;-64
2021/03/19 00:21:15;;;;;;;60.60;34.30;;;;;;;-2.12;82.36;99930.00;251597;1107;115184;-61
2021/03/19 00:26:19;;;;;;;64.50;33.92;;;;;;;-2.12;82.34;99922.98;251871;1108;114964;-61
2021/03/19 00:31:23;;;;;;;62.05;34.10;;;;;;;-2.19;83.48;99927.19;252687;1108;115508;-63
2021/03/19 00:36:26;;;;;;;59.23;29.98;;;;;;;-2.22;82.24;99931.87;251544;1108;115024;-62
2021/03/19 00:41:28;;;;;;;60.28;30.40;;;;;;;-2.19;82.51;99926.36;251996;1108;115525;-61
2021/03/19 00:46:31;;;;;;;74.45;36.45;;;;;;;-2.24;82.50;99918.15;251953;1109;115877;-64
2021/03/19 00:51:35;;;;;;;100.82;53.73;;;;;;;-2.23;82.82;99920.61;251870;1108;115323;-61
2021/03/19 00:56:38;;;;;;;157.45;80.25;;;;;;;-2.23;83.32;99920.61;251102;1108;116266;-62
2021/03/19 01:01:41;;;;;;;509.07;242.80;;;;;;;-2.20;82.67;99909.05;251490;1108;117027;-63
2021/03/19 01:06:44;;;;;;;601.55;313.25;;;;;;;-2.25;83.53;99913.89;251189;1109;115365;-60
2021/03/19 01:11:47;;;;;;;390.80;187.88;;;;;;;-2.24;83.33;99912.92;251067;1108;116169;-62
2021/03/19 01:16:51;;;;;;;218.17;102.62;;;;;;;-2.21;83.03;99910.02;251224;1108;116943;-61
2021/03/19 01:21:55;;;;;;;65.67;36.70;;;;;;;-2.16;83.73;99910.41;251788;1108;116311;-61
2021/03/19 01:26:59;;;;;;;68.28;34.92;;;;;;;-2.11;82.75;99913.36;251805;1108;115234;-64
2021/03/19 01:32:02;;;;;;;63.28;39.78;;;;;;;-2.21;82.73;99910.02;251720;1109;116129;-61
2021/03/19 01:37:05;;;;;;;68.33;37.73;;;;;;;-2.17;82.67;99916.59;251066;1109;115640;-64
2021/03/19 01:42:10;;;;;;;61.02;33.78;;;;;;;-2.14;82.67;99916.30;253007;1108;114876;-62
2021/03/19 01:47:51;;;;;;;62.13;32.78;;;;;;;-2.23;81.78;99907.55;252750;1108;116300;-64
2021/03/19 01:53:32;;;;;;;64.42;34.03;;;;;;;-2.32;83.41;99915.45;253622;1108;115311;-62
2021/03/19 01:59:13;;;;;;;57.30;33.48;;;;;;;-2.37;83.55;99908.05;253504;1108;117690;-63
2021/03/19 02:04:54;;;;;;;51.05;30.23;;;;;;;-2.34;83.23;99909.55;254234;1108;115113;-64
2021/03/19 02:10:35;;;;;;;65.52;36.98;;;;;;;-2.31;83.12;99907.47;253415;1107;116779;-61
2021/03/19 02:16:16;;;;;;;62.03;32.88;;;;;;;-2.38;82.77;99896.79;252326;1107;115893;-60
2021/03/19 02:21:57;;;;;;;50.45;29.05;;;;;;;-2.49;83.76;99902.23;252630;1108;117912;-59
2021/03/19 02:27:38;;;;;;;62.45;32.55;;;;;;;-2.54;83.97;99896.63;252578;1108;116344;-62
2021/03/19 02:32:42;;;;;;;60.23;33.60;;;;;;;-2.55;84.28;99905.43;250984;1107;116541;-66
2021/03/19 02:37:46;;;;;;;64.15;37.03;;;;;;;-2.54;84.85;99908.86;252728;1107;115426;-61
2021/03/19 02:42:51;;;;;;;66.95;36.23;;;;;;;-2.59;83.47;99898.86;251349;1107;117372;-62
2021/03/19 02:47:55;;;;;;;62.17;35.07;;;;;;;-2.56;84.17;99898.56;250978;1108;115824;-63
2021/03/19 02:52:59;;;;;;;58.95;33.02;;;;;;;-2.57;84.30;99904.75;252084;1109;116016;-62
2021/03/19 02:58:03;;;;;;;61.75;35.70;;;;;;;-2.53;84.45;99902.67;252095;1108;115461;-62
2021/03/19 03:03:07;;;;;;;69.47;36.17;;;;;;;-2.49;83.20;99914.47;251867;1107;115847;-65
2021/03/19 03:08:15;;;;;;;69.20;34.60;;;;;;;-2.54;84.15;99916.69;251539;1107;114949;-63
2021/03/19 03:13:19;;;;;;;66.05;36.60;;;;;;;-2.54;84.57;99921.91;251104;1109;115709;-63
2021/03/19 03:18:24;;;;;;;86.40;45.95;;;;;;;-2.61;83.75;99919.06;251342;1109;116247;-61
2021/03/19 03:23:29;;;;;;;76.90;42.83;;;;;;;-2.67;83.25;99921.42;252340;1108;115084;-64
2021/03/19 03:28:33;;;;;;;98.33;53.17;;;;;;;-2.62;83.75;99913.98;251125;1108;115810;-65
2021/03/19 03:33:36;;;;;;;70.23;42.33;;;;;;;-2.59;84.33;99922.34;252434;1108;115024;-63
2021/03/19 03:38:43;;;;;;;78.97;43.17;;;;;;;-2.66;83.57;99920.45;252589;1108;115717;-64
2021/03/19 03:43:46;;;;;;;68.83;39.88;;;;;;;-2.75;83.98;99917.73;251681;1109;115149;-63
2021/03/19 03:48:53;;;;;;;73.95;36.98;;;;;;;-2.80;84.26;99924.38;253188;1108;115514;-63
2021/03/19 03:53:57;;;;;;;79.77;36.60;;;;;;;-2.84;83.46;99925.63;253433;1108;117394;-63
2021/03/19 03:59:01;;;;;;;69.35;37.08;;;;;;;-2.87;82.55;99921.52;253659;1108;115812;-64
2021/03/19 04:04:05;;;;;;;68.00;38.75;;;;;;;-2.84;83.28;99936.89;253624;1108;115841;-65
2021/03/19 04:09:10;;;;;;;64.85;33.18;;;;;;;-2.81;83.32;99928.78;253964;1107;115359;-66
2021/03/19 04:14:14;;;;;;;60.12;32.80;;;;;;;-2.84;82.53;99933.46;254005;1108;115575;-66
2021/03/19 04:19:19;;;;;;;62.38;33.40;;;;;;;-2.87;81.13;99929.35;253735;1108;115044;-65
2021/03/19 04:24:24;;;;;;;68.60;37.48;;;;;;;-3.06;83.03;99926.83;251790;1108;115404;-63
2021/03/19 04:29:28;;;;;;;63.42;32.80;;;;;;;-3.23;82.55;99924.95;251294;1108;115803;-61
2021/03/19 04:34:32;;;;;;;62.60;32.43;;;;;;;-3.33;81.69;99924.14;252188;1107;116415;-63
2021/03/19 04:39:40;;;;;;;58.80;32.28;;;;;;;-3.36;82.83;99922.64;252824;1108;117496;-61
2021/03/19 04:44:47;;;;;;;55.78;30.55;;;;;;;-3.37;82.64;99921.02;251915;1108;115848;-62
2021/03/19 04:49:51;;;;;;;53.10;30.87;;;;;;;-3.41;82.78;99930.08;252095;1108;115561;-61
2021/03/19 04:54:54;;;;;;;59.57;32.30;;;;;;;-3.49;82.43;99940.37;251698;1109;115748;-61
2021/03/19 04:59:58;;;;;;;65.00;32.13;;;;;;;-3.56;84.10;99929.69;251947;1108;115913;-62
2021/03/19 05:05:04;;;;;;;60.63;31.93;;;;;;;-3.52;83.07;99938.05;251319;1108;115438;-62
2021/03/19 05:10:10;;;;;;;50.60;32.20;;;;;;;-3.52;84.49;99938.05;251773;1108;116755;-61
2021/03/19 05:15:15;;;;;;;60.52;31.82;;;;;;;-3.50;83.17;99934.34;251292;1109;116048;-61
2021/03/19 05:20:18;;;;;;;52.33;30.13;;;;;;;-3.47;83.73;99943.67;251068;1108;115022;-61
2021/03/19 05:25:26;;;;;;;51.40;29.00;;;;;;;-3.55;82.73;99940.93;251900;1109;115000;-61
2021/03/19 05:30:33;;;;;;;48.60;27.37;;;;;;;-3.56;84.50;99934.89;251106;1108;115839;-61
2021/03/19 05:35:37;;;;;;;53.10;28.15;;;;;;;-3.51;85.23;99943.13;251149;1109;115427;-62
2021/03/19 05:40:43;;;;;;;51.92;28.65;;;;;;;-3.46;84.90;99938.31;252160;1108;115158;-62
2021/03/19 05:45:51;;;;;;;54.55;30.37;;;;;;;-3.25;84.89;99943.34;251491;1109;117903;-61
2021/03/19 05:50:56;;;;;;;59.88;30.35;;;;;;;-3.00;84.28;99947.09;251251;1108;116390;-63
2021/03/19 05:55:59;;;;;;;60.80;32.67;;;;;;;-2.82;83.86;99960.23;252904;1108;115701;-62
2021/03/19 06:01:04;;;;;;;61.43;37.30;;;;;;;-2.51;84.34;99950.33;251802;1107;117286;-62
2021/03/19 06:06:10;;;;;;;67.80;35.50;;;;;;;-2.24;83.49;99960.75;251742;1108;116592;-62
2021/03/19 06:11:15;;;;;;;26.77;13.68;;;;;;;-1.98;82.78;99945.17;251290;1108;115970;-62
2021/03/19 06:16:27;;;;;;;35.88;17.52;;;;;;;-1.88;82.75;99950.33;254291;1108;119828;-63
2021/03/19 06:21:35;;;;;;;56.48;31.62;;;;;;;-1.69;83.12;99950.16;254256;1108;116317;-62
2021/03/19 06:26:41;;;;;;;56.95;30.92;;;;;;;-1.36;83.80;99949.44;254153;1108;119749;-63
2021/03/19 06:32:06;;;;;;;58.10;30.27;;;;;;;-1.13;81.27;99947.13;253841;1108;117467;-62
2021/03/19 06:37:11;;;;;;;46.58;24.02;;;;;;;-0.86;81.70;99955.77;254049;1108;115790;-62
2021/03/19 06:42:18;;;;;;;51.75;27.82;;;;;;;-0.65;80.29;99956.22;252232;1108;116222;-63
2021/03/19 06:48:02;;;;;;;41.43;25.07;;;;;;;-0.51;79.52;99952.16;251131;1109;115981;-61
2021/03/19 06:53:26;;;;;;;44.75;25.77;;;;;;;-0.26;79.92;99953.05;251034;1109;116025;-62
2021/03/19 06:58:38;;;;;;;49.75;28.10;;;;;;;0.05;79.29;99961.97;251916;1108;115152;-62
2021/03/19 07:04:09;;;;;;;40.75;23.12;;;;;;;0.28;78.82;99960.38;251019;1108;114851;-65
2021/03/19 07:09:46;;;;;;;48.63;23.32;;;;;;;0.68;75.70;99964.78;251922;1108;114976;-65
2021/03/19 07:15:23;;;;;;;40.35;25.45;;;;;;;1.00;74.11;99966.53;251862;1109;115804;-64
2021/03/19 07:21:02;;;;;;;38.38;19.92;;;;;;;1.30;73.00;99967.60;251768;1109;115860;-65
2021/03/19 07:26:28;;;;;;;34.77;20.27;;;;;;;1.45;71.36;99975.61;250625;1109;116318;-63
2021/03/19 07:32:02;;;;;;;28.12;17.05;;;;;;;1.79;70.75;99977.11;251238;1109;114999;-63
2021/03/19 07:37:29;;;;;;;29.77;17.60;;;;;;;1.98;69.03;99966.14;252171;1108;116373;-63
2021/03/19 07:42:47;;;;;;;26.73;16.40;;;;;;;2.23;67.71;99975.50;250992;1107;115461;-64
2021/03/19 07:48:12;;;;;;;26.70;14.45;;;;;;;2.07;66.40;99970.37;252020;1108;116191;-65
2021/03/19 07:53:46;;;;;;;18.60;8.83;;;;;;;2.08;66.55;99977.27;251521;1109;117711;-66
2021/03/19 07:59:01;;;;;;;13.28;6.90;;;;;;;1.58;65.96;99986.37;251386;1108;115772;-64
2021/03/19 08:04:22;;;;;;;17.17;10.38;;;;;;;1.79;66.18;99971.84;252391;1108;115568;-64
2021/03/19 08:09:34;;;;;;;18.80;10.18;;;;;;;2.17;65.26;99978.83;251733;1108;115317;-65
2021/03/19 08:15:05;;;;;;;12.35;8.90;;;;;;;2.31;65.43;99978.09;253250;1107;115307;-64
2021/03/19 08:20:15;;;;;;;6.40;5.05;;;;;;;2.34;64.26;99983.00;253233;1108;115023;-64
2021/03/19 08:25:20;;;;;;;10.13;5.03;;;;;;;2.56;63.41;99976.08;251505;1108;116840;-65
2021/03/19 08:30:47;;;;;;;5.58;2.55;;;;;;;2.53;62.32;99967.72;252320;1109;115303;-65
2021/03/19 08:36:17;;;;;;;9.25;5.58;;;;;;;2.96;62.73;99972.27;254036;1108;115471;-65
2021/03/19 08:41:47;;;;;;;7.12;4.53;;;;;;;2.95;60.89;99968.00;253938;1108;114951;-65
2021/03/19 08:47:01;;;;;;;9.98;6.85;;;;;;;3.51;60.15;99963.09;253940;1108;114710;-66
2021/03/19 08:52:42;;;;;;;10.58;5.70;;;;;;;3.35;58.01;99965.94;252298;1108;116037;-64
2021/03/19 08:57:52;;;;;;;5.87;3.70;;;;;;;3.27;59.20;99964.20;251532;1108;115625;-67
2021/03/19 09:03:06;;;;;;;10.38;7.42;;;;;;;3.49;60.10;99961.64;252759;1108;115403;-65
2021/03/19 09:08:18;;;;;;;6.63;4.80;;;;;;;3.23;58.61;99956.84;252768;1108;115159;-66
2021/03/19 09:13:24;;;;;;;7.20;4.87;;;;;;;3.20;57.62;99963.30;251693;1109;115336;-66
2021/03/19 09:18:48;;;;;;;11.38;6.53;;;;;;;3.42;58.31;99956.28;252673;1108;115813;-62
2021/03/19 09:23:58;;;;;;;10.53;5.72;;;;;;;3.98;56.20;99956.53;252388;1108;115195;-65
2021/03/19 09:29:32;;;;;;;5.50;3.70;;;;;;;3.92;55.40;99952.03;251388;1108;115473;-68
2021/03/19 09:34:42;;;;;;;9.10;5.67;;;;;;;3.86;56.55;99960.68;251024;1109;115264;-65
2021/03/19 09:39:54;;;;;;;7.37;3.83;;;;;;;3.91;54.51;99955.67;252391;1108;196091;-66
2021/03/19 09:44:59;;;;;;;4.10;3.27;;;;;;;3.58;53.47;99960.55;251746;1108;117635;-64
2021/03/19 09:50:16;;;;;;;6.90;4.58;;;;;;;3.85;52.67;99967.77;251610;1108;114572;-63
2021/03/19 09:55:23;;;;;;;3.30;2.58;;;;;;;3.88;49.60;99962.13;251040;1108;115128;-64
2021/03/19 10:00:28;;;;;;;7.80;4.35;;;;;;;3.99;51.13;99958.98;251836;1107;115510;-65
2021/03/19 10:05:38;;;;;;;2.55;2.33;;;;;;;3.67;51.62;99962.87;253052;1109;114779;-65
2021/03/19 10:10:43;;;;;;;6.28;5.37;;;;;;;3.48;50.57;99955.55;251154;1109;116025;-65
2021/03/19 10:15:49;;;;;;;9.15;4.62;;;;;;;3.41;52.77;99964.37;250983;1108;115390;-65
2021/03/19 10:20:57;;;;;;;10.13;6.80;;;;;;;3.28;53.94;99959.76;252974;1108;116892;-65
2021/03/19 10:26:25;;;;;;;;;;;;;;;3.64;52.87;99958.00;251163;1109;116452;-64
2021/03/19 10:31:28;;;;;;;10.35;4.80;;;;;;;4.17;50.90;99949.84;253055;1109;103367;-65
2021/03/19 10:36:40;;;;;;;5.65;4.42;;;;;;;4.35;48.20;99958.13;253297;1108;115574;-65
2021/03/19 10:41:52;;;;;;;3.75;2.52;;;;;;;4.18;49.08;99946.20;254147;1108;115420;-65
2021/03/19 10:47:07;;;;;;;4.03;3.27;;;;;;;4.82;50.29;99954.89;253762;1108;115192;-65
2021/03/19 10:52:37;;;;;;;10.18;4.85;;;;;;;4.44;48.50;99957.01;251710;1108;116655;-64
2021/03/19 10:57:42;;;;;;;5.93;4.80;;;;;;;4.15;51.12;99968.50;253167;1109;115951;-65
2021/03/19 11:02:57;;;;;;;9.55;5.12;;;;;;;3.96;58.17;99967.30;252291;1108;115755;-65
2021/03/19 11:08:15;;;;;;;9.48;4.67;;;;;;;3.72;56.79;99963.15;253277;1108;114641;-65
2021/03/19 11:13:21;;;;;;;9.15;5.85;;;;;;;3.73;57.36;99969.23;251958;1108;115782;-65
2021/03/19 11:18:36;;;;;;;9.57;6.33;;;;;;;3.98;57.83;99965.27;251752;1108;116656;-65
2021/03/19 11:23:41;;;;;;;9.08;6.35;;;;;;;4.28;56.36;99965.19;252326;1108;115598;-65
2021/03/19 11:28:47;;;;;;;7.05;4.83;;;;;;;4.47;55.71;99961.09;251388;1108;115600;-68
2021/03/19 11:33:54;;;;;;;7.60;5.12;;;;;;;4.72;54.06;99959.67;251260;1109;115104;-64
2021/03/19 11:39:12;;;;;;;10.80;5.17;;;;;;;4.83;51.68;99955.70;251260;1109;115203;-64
2021/03/19 11:44:16;;;;;;;9.07;6.47;;;;;;;4.48;55.21;99952.17;251408;1108;115438;-64
2021/03/19 11:49:21;;;;;;;8.25;5.47;;;;;;;4.31;55.64;99962.97;251208;1109;114582;-64
2021/03/19 11:54:25;;;;;;;8.33;7.15;;;;;;;4.26;57.48;99960.10;251660;1108;114727;-65
2021/03/19 11:59:28;;;;;;;6.65;6.00;;;;;;;4.02;58.35;99961.25;250950;1107;114786;-65
2021/03/19 12:04:32;;;;;;;5.95;3.80;;;;;;;3.73;58.83;99970.06;251240;1108;115261;-64
2021/03/19 12:09:37;;;;;;;6.70;4.62;;;;;;;3.75;60.72;99967.23;253150;1107;114444;-65
2021/03/19 12:14:41;;;;;;;9.60;7.00;;;;;;;3.68;61.58;99977.70;252100;1108;115546;-65
2021/03/19 12:19:44;;;;;;;9.68;6.25;;;;;;;3.55;61.66;99972.28;252405;1108;116143;-65
2021/03/19 12:24:47;;;;;;;9.78;6.60;;;;;;;3.55;60.23;99974.09;251965;1108;115258;-65
2021/03/19 12:29:50;;;;;;;6.50;5.40;;;;;;;3.49;59.92;99959.83;251632;1108;116002;-64
2021/03/19 12:34:53;;;;;;;9.40;4.35;;;;;;;3.83;58.09;99961.05;253426;1108;115210;-65
2021/03/19 12:39:56;;;;;;;3.80;3.27;;;;;;;4.07;60.42;99950.14;254030;1107;114606;-65
2021/03/19 12:44:59;;;;;;;6.50;5.22;;;;;;;4.29;59.82;99953.60;253007;1108;115598;-65
2021/03/19 12:50:05;;;;;;;12.15;7.03;;;;;;;4.05;59.98;99950.33;254086;1107;114577;-65
2021/03/19 12:55:08;;;;;;;12.28;7.85;;;;;;;3.77;61.65;99948.59;253506;1107;115861;-65
2021/03/19 13:00:22;;;;;;;13.50;10.50;;;;;;;3.46;62.90;99948.83;254044;1106;114753;-64
2021/03/19 13:05:28;;;;;;;8.15;6.85;;;;;;;3.43;63.84;99951.83;253823;1108;115502;-65
2021/03/19 13:10:33;;;;;;;9.83;7.67;;;;;;;3.31;65.98;99954.95;251726;1108;117626;-67
2021/03/19 13:15:38;;;;;;;14.47;9.33;;;;;;;3.07;66.45;99949.92;251221;1107;116216;-65
2021/03/19 13:20:41;;;;;;;13.75;10.13;;;;;;;2.89;67.87;99949.47;251500;1108;116001;-64
2021/03/19 13:25:45;;;;;;;9.63;7.83;;;;;;;2.28;72.16;99956.57;252118;1109;116896;-65
2021/03/19 13:30:49;;;;;;;9.03;5.40;;;;;;;1.99;73.95;99963.34;251683;1109;117121;-64
2021/03/19 13:35:55;;;;;;;7.53;6.43;;;;;;;1.95;72.48;99966.48;251611;1109;115817;-64
2021/03/19 13:41:02;;;;;;;10.15;7.20;;;;;;;1.96;74.88;99958.42;252530;1107;116948;-64
2021/03/19 13:46:06;;;;;;;6.62;4.85;;;;;;;1.81;72.66;99965.43;251271;1109;118263;-64
2021/03/19 13:51:10;;;;;;;6.42;4.62;;;;;;;1.83;72.76;99973.14;251158;1108;117004;-65
2021/03/19 13:56:19;;;;;;;5.15;4.50;;;;;;;1.56;75.25;99977.02;251426;1107;116623;-64
2021/03/19 14:01:27;;;;;;;3.77;3.43;;;;;;;1.50;73.94;99962.78;251356;1108;115929;-64
2021/03/19 14:06:31;;;;;;;7.12;4.65;;;;;;;1.50;73.31;99969.84;251833;1109;117476;-64
2021/03/19 14:11:37;;;;;;;6.45;3.35;;;;;;;1.38;73.65;99974.64;250970;1109;115918;-65
2021/03/19 14:16:42;;;;;;;10.85;6.20;;;;;;;1.27;73.45;99982.88;252952;1108;115913;-63
2021/03/19 14:21:48;;;;;;;6.45;5.75;;;;;;;1.07;74.36;99982.44;251164;1109;116063;-63
2021/03/19 14:26:51;;;;;;;4.78;4.28;;;;;;;1.08;73.74;99980.64;251629;1108;116287;-64
2021/03/19 14:31:55;;;;;;;9.90;5.42;;;;;;;1.16;74.32;99991.13;252327;1108;116601;-65
2021/03/19 14:37:01;;;;;;;5.05;4.12;;;;;;;1.10;73.95;99992.61;251316;1108;116320;-64
2021/03/19 14:42:04;;;;;;;3.30;3.00;;;;;;;1.06;71.20;99990.48;251627;1109;117245;-64
2021/03/19 14:47:07;;;;;;;5.37;2.85;;;;;;;0.87;72.45;100008.23;252177;1108;115281;-63
2021/03/19 14:52:11;;;;;;;4.20;3.70;;;;;;;0.80;73.80;100001.19;252455;1108;116412;-63
2021/03/19 14:57:15;;;;;;;3.50;3.20;;;;;;;0.71;74.20;100008.23;254193;1108;117814;-64
2021/03/19 15:02:20;;;;;;;6.40;3.47;;;;;;;0.39;70.95;100018.71;254310;1107;116383;-64
2021/03/19 15:07:24;;;;;;;4.85;3.92;;;;;;;0.29;72.92;100022.33;253488;1109;115936;-65
2021/03/19 15:12:28;;;;;;;4.58;3.08;;;;;;;0.21;70.49;100026.72;252942;1108;116497;-64
2021/03/19 15:17:32;;;;;;;2.77;2.50;;;;;;;0.22;71.42;100029.19;251913;1108;115277;-65
2021/03/19 15:22:36;;;;;;;3.15;2.75;;;;;;;0.09;69.24;100028.00;252035;1108;116630;-65
2021/03/19 15:27:42;;;;;;;4.83;2.77;;;;;;;-0.05;70.30;100043.38;251726;1107;116315;-64
2021/03/19 15:32:46;;;;;;;4.83;2.58;;;;;;;-0.14;69.01;100049.55;252722;1109;115161;-64
2021/03/19 15:37:53;;;;;;;5.10;3.50;;;;;;;-0.08;69.89;100051.55;252145;1107;115992;-64
2021/03/19 15:42:58;;;;;;;5.47;4.97;;;;;;;-0.16;67.83;100055.93;251129;1109;115812;-67
2021/03/19 15:48:03;;;;;;;6.12;4.15;;;;;;;-0.17;69.92;100056.91;251654;1109;115226;-64
2021/03/19 15:53:09;;;;;;;3.75;3.35;;;;;;;-0.13;69.54;100066.92;251707;1108;114969;-64
2021/03/19 15:58:17;;;;;;;1.90;1.80;;;;;;;-0.22;69.35;100073.09;251502;1109;115407;-62
2021/03/19 16:03:22;;;;;;;4.20;3.13;;;;;;;-0.33;69.81;100075.19;251702;1108;115851;-61
2021/03/19 16:08:29;;;;;;;3.47;3.12;;;;;;;-0.42;69.77;100075.14;251857;1108;115664;-62
2021/03/19 16:13:33;;;;;;;6.03;3.65;;;;;;;-0.38;69.72;100091.36;252321;1108;114835;-64
2021/03/19 16:18:37;;;;;;;3.47;3.05;;;;;;;-0.46;70.62;100096.55;251042;1109;115655;-64
2021/03/19 16:23:42;;;;;;;4.30;3.90;;;;;;;-0.50;70.71;100098.66;252136;1108;116005;-64
2021/03/19 16:28:47;;;;;;;4.90;2.10;;;;;;;-0.73;69.96;100100.14;251611;1108;116650;-65
2021/03/19 16:33:51;;;;;;;3.37;3.08;;;;;;;-0.86;72.28;100102.33;251345;1109;115752;-65
2021/03/19 16:38:57;;;;;;;2.47;2.27;;;;;;;-0.86;71.35;100108.38;252519;1108;115462;-66
2021/03/19 16:44:01;;;;;;;2.52;2.35;;;;;;;-0.94;72.02;100121.42;253797;1108;114977;-64
2021/03/19 16:49:04;;;;;;;3.75;1.82;;;;;;;-0.97;71.55;100132.20;252843;1109;116534;-65
2021/03/19 16:54:12;;;;;;;1.87;1.77;;;;;;;-0.97;72.18;100141.84;252989;1108;115463;-64
2021/03/19 16:59:17;;;;;;;5.90;4.33;;;;;;;-1.02;72.45;100137.88;254014;1108;115650;-64
2021/03/19 17:04:24;;;;;;;;;;;;;;;-1.02;71.78;100139.67;253828;1108;115001;-64
2021/03/19 17:09:29;;;;;;;8.95;4.85;;;;;;;-1.04;70.51;100147.67;254697;1108;102689;-65
2021/03/19 17:14:49;;;;;;;7.45;3.50;;;;;;;-1.13;70.67;100151.17;253860;1108;115924;-64
2021/03/19 17:19:52;;;;;;;5.58;3.70;;;;;;;-1.15;71.01;100155.73;251801;1108;115027;-65
2021/03/19 17:25:00;;;;;;;;;;;;;;;-1.09;71.07;100152.52;252672;1108;114933;-64
2021/03/19 17:30:06;;;;;;;3.90;2.98;;;;;;;-1.19;70.34;100161.41;253606;1108;104196;-64
2021/03/19 17:35:15;;;;;;;9.18;5.00;;;;;;;-1.14;70.80;100167.02;251511;1107;116110;-64
2021/03/19 17:40:20;;;;;;;9.93;5.30;;;;;;;-1.15;70.46;100173.22;251851;1108;116956;-63
2021/03/19 17:45:27;;;;;;;6.65;4.60;;;;;;;-1.08;70.60;100180.33;251488;1109;115184;-63
2021/03/19 17:50:32;;;;;;;7.85;3.72;;;;;;;-1.18;69.16;100179.56;251363;1109;115870;-64
2021/03/19 17:55:35;;;;;;;11.78;3.50;;;;;;;-1.24;67.12;100185.41;251658;1108;114644;-63
2021/03/19 18:00:39;;;;;;;4.20;2.43;;;;;;;-1.30;64.88;100180.77;251908;1107;115364;-62
2021/03/19 18:05:45;;;;;;;4.45;2.72;;;;;;;-1.28;65.32;100197.14;251724;1109;115023;-63
2021/03/19 18:10:48;;;;;;;8.27;4.10;;;;;;;-1.24;67.63;100193.26;251283;1109;115393;-64
2021/03/19 18:15:53;;;;;;;6.62;4.92;;;;;;;-1.22;67.07;100199.14;251360;1109;114876;-64
2021/03/19 18:20:59;;;;;;;5.57;3.83;;;;;;;-1.32;68.13;100195.78;251036;1109;114852;-64
2021/03/19 18:26:03;;;;;;;3.20;2.60;;;;;;;-1.41;68.34;100205.32;252147;1107;114825;-64
2021/03/19 18:31:07;;;;;;;5.78;3.60;;;;;;;-1.45;68.76;100206.58;252399;1108;115785;-64
2021/03/19 18:36:13;;;;;;;4.37;3.30;;;;;;;-1.50;69.56;100221.88;251963;1108;114863;-64
2021/03/19 18:41:21;;;;;;;10.35;6.12;;;;;;;-1.45;70.12;100224.05;251962;1108;115233;-64
2021/03/19 18:46:27;;;;;;;11.00;4.92;;;;;;;-1.48;67.10;100226.96;252551;1107;115655;-67
2021/03/19 18:51:31;;;;;;;4.40;3.40;;;;;;;-1.52;67.64;100221.20;253186;1108;115768;-63
2021/03/19 18:56:35;;;;;;;5.03;2.42;;;;;;;-1.59;65.02;100230.61;252960;1108;114759;-64
2021/03/19 19:01:39;;;;;;;4.40;2.42;;;;;;;-1.64;66.42;100235.44;252891;1108;115080;-64
2021/03/19 19:06:43;;;;;;;6.90;3.37;;;;;;;-1.71;65.26;100235.19;254046;1108;115371;-64
2021/03/19 19:11:50;;;;;;;4.15;2.02;;;;;;;-1.79;61.23;100252.54;252063;1109;115524;-63
2021/03/19 19:16:53;;;;;;;2.63;1.80;;;;;;;-1.84;60.21;100245.16;253602;1108;115536;-65
2021/03/19 19:21:59;;;;;;;2.90;2.40;;;;;;;-1.92;58.29;100257.27;251918;1109;115835;-62
2021/03/19 19:27:03;;;;;;;6.22;2.10;;;;;;;-1.92;59.01;100263.33;252667;1108;115844;-63
2021/03/19 19:32:07;;;;;;;2.85;1.70;;;;;;;-1.97;58.28;100262.92;251229;1108;115962;-63
2021/03/19 19:37:12;;;;;;;2.55;2.30;;;;;;;-2.03;59.04;100271.31;251563;1108;116199;-63
2021/03/19 19:42:20;;;;;;;3.63;2.73;;;;;;;-2.05;59.17;100283.69;252050;1108;115793;-63
2021/03/19 19:47:24;;;;;;;5.40;2.90;;;;;;;-2.06;60.47;100285.48;251857;1109;116576;-63
2021/03/19 19:52:28;;;;;;;7.80;3.03;;;;;;;-2.11;60.33;100286.86;252128;1108;196201;-64
2021/03/19 19:57:33;;;;;;;5.83;2.77;;;;;;;-2.15;59.26;100290.73;251124;1108;114853;-64
2021/03/19 20:02:37;;;;;;;5.35;3.12;;;;;;;-2.16;61.24;100291.70;252612;1108;205598;-64
2021/03/19 20:07:43;;;;;;;5.65;2.52;;;;;;;-2.22;62.35;100293.08;251954;1106;115541;-63
2021/03/19 20:12:47;;;;;;;7.83;2.67;;;;;;;-2.33;61.97;100292.39;252149;1108;115081;-63
2021/03/19 20:17:51;;;;;;;6.17;2.00;;;;;;;-2.45;61.06;100297.77;251189;1109;115696;-63
2021/03/19 20:22:54;;;;;;;6.05;3.45;;;;;;;-2.53;62.82;100300.23;251879;1109;114979;-63
2021/03/19 20:27:59;;;;;;;5.70;3.30;;;;;;;-2.58;61.09;100312.86;251537;1108;115889;-64
2021/03/19 20:33:03;;;;;;;8.23;2.52;;;;;;;-2.61;62.96;100312.31;251919;1109;114969;-63
2021/03/19 20:38:08;;;;;;;4.30;2.80;;;;;;;-2.66;62.13;100310.09;252728;1108;115518;-64
2021/03/19 20:43:14;;;;;;;9.15;3.62;;;;;;;-2.69;60.86;100322.59;251368;1109;116568;-65
2021/03/19 20:48:25;;;;;;;3.45;1.95;;;;;;;-2.81;60.44;100322.73;252432;1108;115603;-63
2021/03/19 20:53:34;;;;;;;4.95;4.15;;;;;;;-2.73;62.37;100330.69;252632;1108;115843;-64
2021/03/19 20:58:39;;;;;;;10.03;6.30;;;;;;;-2.81;63.05;100321.91;253240;1108;115990;-66
2021/03/19 21:03:46;;;;;;;8.00;4.10;;;;;;;-2.86;62.27;100331.91;253644;1108;115821;-64
2021/03/19 21:09:11;;;;;;;4.05;2.67;;;;;;;-2.90;60.97;100333.96;253904;1108;115156;-63
2021/03/19 21:14:17;;;;;;;7.12;3.37;;;;;;;-2.89;61.10;100337.39;254002;1108;116714;-63
2021/03/19 21:19:23;;;;;;;4.72;2.37;;;;;;;-2.94;60.60;100332.58;253824;1108;116455;-64
2021/03/19 21:24:26;;;;;;;8.98;4.20;;;;;;;-2.93;61.40;100336.01;252379;1108;115765;-62
2021/03/19 21:29:31;;;;;;;8.03;3.83;;;;;;;-2.97;60.75;100345.05;251841;1109;115967;-63
2021/03/19 21:34:36;;;;;;;7.58;3.47;;;;;;;-3.02;60.06;100344.63;251903;1108;116995;-62
2021/03/19 21:39:41;;;;;;;13.05;4.75;;;;;;;-3.01;61.70;100346.27;252631;1109;118084;-64
2021/03/19 21:44:46;;;;;;;7.15;3.52;;;;;;;-3.12;59.84;100348.05;252181;1108;116450;-65
2021/03/19 21:49:48;;;;;;;6.85;4.65;;;;;;;-3.03;62.52;100356.01;252291;1108;116750;-63
2021/03/19 21:54:53;;;;;;;9.03;4.22;;;;;;;-3.06;61.65;100359.73;251689;1107;117571;-62
2021/03/19 21:59:58;;;;;;;9.65;4.42;;;;;;;-3.02;61.86;100365.48;252265;1108;115945;-63
2021/03/19 22:05:05;;;;;;;14.78;4.22;;;;;;;-2.99;62.73;100360.01;251247;1108;115795;-62
2021/03/19 22:10:13;;;;;;;12.30;6.95;;;;;;;-3.00;61.82;100367.01;251352;1108;116654;-61
2021/03/19 22:15:17;;;;;;;10.85;4.62;;;;;;;-3.01;63.50;100372.35;251036;1108;115228;-63
2021/03/19 22:20:27;;;;;;;10.57;4.30;;;;;;;-3.07;61.22;100379.77;251566;1108;115154;-64
2021/03/19 22:25:31;;;;;;;11.78;5.65;;;;;;;-3.11;61.36;100378.38;251700;1109;116449;-63
2021/03/19 22:30:36;;;;;;;8.93;4.33;;;;;;;-3.10;62.09;100387.86;251573;1108;115469;-65
2021/03/19 22:35:41;;;;;;;14.38;5.75;;;;;;;-3.12;64.15;100389.77;251127;1109;114848;-64
2021/03/19 22:40:56;;;;;;;14.43;5.85;;;;;;;-3.15;62.81;100392.64;251620;1109;116872;-64
2021/03/19 22:46:01;;;;;;;16.05;5.87;;;;;;;-3.21;63.98;100393.16;251179;1109;117766;-66
2021/03/19 22:51:07;;;;;;;10.15;4.55;;;;;;;-3.24;62.90;100393.41;251725;1108;117947;-65
2021/03/19 22:56:11;;;;;;;13.00;5.30;;;;;;;-3.25;63.64;100389.15;252152;1108;118071;-63
2021/03/19 23:01:24;;;;;;;14.10;4.80;;;;;;;-3.23;62.20;100397.67;251979;1108;116398;-65
2021/03/19 23:06:32;;;;;;;14.65;4.95;;;;;;;-3.25;62.06;100394.36;253625;1108;117912;-62
2021/03/19 23:11:36;;;;;;;13.93;5.22;;;;;;;-3.24;62.04;100411.66;253958;1108;116219;-64
2021/03/19 23:16:42;;;;;;;10.03;5.37;;;;;;;-3.24;62.96;100403.84;253845;1107;118004;-64
2021/03/19 23:21:47;;;;;;;14.93;5.05;;;;;;;-3.24;62.93;100413.44;253856;1108;114940;-65
2021/03/19 23:27:03;;;;;;;10.45;6.72;;;;;;;-3.26;63.92;100426.61;253435;1107;118879;-64